Thurmond, West Virginia
Current Conditions -  °F | °C
As of 1:51 PM on Tuesday 27 Jan 2015 (Local Time) from KBKW Reporting Station
Clear Clear  
Wind Chill: 16°   Ceiling: Unl
Heat Index: 27°   Visibility: 10mi
Dew Point:   Wind: 14mph
Humidity: 45%   Direction: 330°NNW
Pressure: 29.84"   Gusts: NA
Location:  37.96°N, 81.08°W
Report Text: KBKW 271851Z AUTO 33012KT 10SM CLR M03/M13 A2984 RMK AO2 SLP142 T10281133
Loading
Personal Weather Stations






























Interactive Weather Map New forecast layout! Learn more

10-Day Weather Forecast

Advertisements
Track Severe Weather on mobile